Map

Track Data

SID SEASON NUMBER BASIN SUBBASIN NAME ISO_TIME NATURE LAT LON WMO_WIND WMO_PRES WMO_AGENCY TRACK_TYPE DIST2LAND LANDFALL IFLAG USA_AGENCY USA_ATCF_ID USA_LAT USA_LON USA_RECORD USA_STATUS USA_WIND USA_PRES USA_SSHS USA_R34_NE USA_R34_SE USA_R34_SW USA_R34_NW USA_R50_NE USA_R50_SE USA_R50_SW USA_R50_NW USA_R64_NE USA_R64_SE USA_R64_SW USA_R64_NW USA_POCI USA_ROCI USA_RMW USA_EYE TOKYO_LAT TOKYO_LON TOKYO_GRADE TOKYO_WIND TOKYO_PRES TOKYO_R50_DIR TOKYO_R50_LONG TOKYO_R50_SHORT TOKYO_R30_DIR TOKYO_R30_LONG TOKYO_R30_SHORT TOKYO_LAND CMA_LAT CMA_LON CMA_CAT CMA_WIND CMA_PRES HKO_LAT HKO_LON HKO_CAT HKO_WIND HKO_PRES NEWDELHI_LAT NEWDELHI_LON NEWDELHI_GRADE NEWDELHI_WIND NEWDELHI_PRES NEWDELHI_CI NEWDELHI_DP NEWDELHI_POCI REUNION_LAT REUNION_LON REUNION_TYPE REUNION_WIND REUNION_PRES REUNION_TNUM REUNION_CI REUNION_RMW REUNION_R34_NE REUNION_R34_SE REUNION_R34_SW REUNION_R34_NW REUNION_R50_NE REUNION_R50_SE REUNION_R50_SW REUNION_R50_NW REUNION_R64_NE REUNION_R64_SE REUNION_R64_SW REUNION_R64_NW BOM_LAT BOM_LON BOM_TYPE BOM_WIND BOM_PRES BOM_TNUM BOM_CI BOM_RMW BOM_R34_NE BOM_R34_SE BOM_R34_SW BOM_R34_NW BOM_R50_NE BOM_R50_SE BOM_R50_SW BOM_R50_NW BOM_R64_NE BOM_R64_SE BOM_R64_SW BOM_R64_NW BOM_ROCI BOM_POCI BOM_EYE BOM_POS_METHOD BOM_PRES_METHOD NADI_LAT NADI_LON NADI_CAT NADI_WIND NADI_PRES WELLINGTON_LAT WELLINGTON_LON WELLINGTON_WIND WELLINGTON_PRES DS824_LAT DS824_LON DS824_STAGE DS824_WIND DS824_PRES TD9636_LAT TD9636_LON TD9636_STAGE TD9636_WIND TD9636_PRES TD9635_LAT TD9635_LON TD9635_WIND TD9635_PRES TD9635_ROCI NEUMANN_LAT NEUMANN_LON NEUMANN_CLASS NEUMANN_WIND NEUMANN_PRES MLC_LAT MLC_LON MLC_CLASS MLC_WIND MLC_PRES USA_GUST BOM_GUST BOM_GUST_PER REUNION_GUST REUNION_GUST_PER USA_SEAHGT USA_SEARAD_NE USA_SEARAD_SE USA_SEARAD_SW USA_SEARAD_NW STORM_SPEED STORM_DIR
1943119N08143 1943 29 WP MM NOT_NAMED 1943-04-28 12:00:00 NR 8.40000 143.300 main 1232 1232 __________O___ -1 8.40000 143.300 2 14 339
1943119N08143 1943 29 WP MM NOT_NAMED 1943-04-28 15:00:00 NR 9.06576 143.045 main 1311 1311 __________P___ -1 9.06576 143.045 2 14 339
1943119N08143 1943 29 WP MM NOT_NAMED 1943-04-28 18:00:00 NR 9.69523 142.791 main 1364 1364 __________P___ -1 9.69523 142.791 2 13 337
1943119N08143 1943 29 WP MM NOT_NAMED 1943-04-28 21:00:00 NR 10.2520 142.542 main 1415 1415 __________P___ -1 10.2520 142.542 2 11 334
1943119N08143 1943 29 WP MM NOT_NAMED 1943-04-29 00:00:00 NR 10.7000 142.300 main 1451 1451 __________O___ -1 10.7000 142.300 2 9 329
1943119N08143 1943 29 WP MM NOT_NAMED 1943-04-29 03:00:00 NR 11.0158 142.067 main 1476 1473 __________P___ -1 11.0158 142.067 2 7 320
1943119N08143 1943 29 WP MM NOT_NAMED 1943-04-29 06:00:00 NR 11.2273 141.842 main 1488 1488 __________P___ -1 11.2273 141.842 2 6 309
1943119N08143 1943 29 WP MM NOT_NAMED 1943-04-29 09:00:00 NR 11.3752 141.621 main 1504 1500 __________P___ -1 11.3752 141.621 2 5 302
1943119N08143 1943 29 WP MM NOT_NAMED 1943-04-29 12:00:00 NR 11.5000 141.400 main 1506 1501 __________O___ -1 11.5000 141.400 2 6 303
1943119N08143 1943 29 WP MM NOT_NAMED 1943-04-29 15:00:00 NR 11.6726 141.147 main 1513 1509 __________P___ -1 11.6726 141.147 2 6 304
1943119N08143 1943 29 WP MM NOT_NAMED 1943-04-29 18:00:00 NR 11.8301 140.898 main 1516 1516 __________P___ -1 11.8301 140.898 2 6 303
1943119N08143 1943 29 WP MM NOT_NAMED 1943-04-29 21:00:00 NR 11.9726 140.675 main 1529 1525 __________P___ -1 11.9726 140.675 2 5 305
1943119N08143 1943 29 WP MM NOT_NAMED 1943-04-30 00:00:00 NR 12.1000 140.500 main 1532 1532 __________O___ -1 12.1000 140.500 2 4 314
1943119N08143 1943 29 WP MM NOT_NAMED 1943-04-30 03:00:00 NR 12.2224 140.408 main 1539 1539 __________P___ -1 12.2224 140.408 2 3 329
1943119N08143 1943 29 WP MM NOT_NAMED 1943-04-30 06:00:00 NR 12.3298 140.362 main 1549 1549 __________P___ -1 12.3298 140.362 2 2 340
1943119N08143 1943 29 WP MM NOT_NAMED 1943-04-30 09:00:00 NR 12.4224 140.336 main 1556 1556 __________P___ -1 12.4224 140.336 2 2 344
1943119N08143 1943 29 WP MM NOT_NAMED 1943-04-30 12:00:00 NR 12.5000 140.300 main 1567 1563 __________O___ -1 12.5000 140.300 2 2 316
1943119N08143 1943 29 WP MM NOT_NAMED 1943-04-30 15:00:00 NR 12.5522 140.210 main 1574 1565 __________P___ -1 12.5522 140.210 2 2 296
1943119N08143 1943 29 WP MM NOT_NAMED 1943-04-30 18:00:00 NR 12.5925 140.107 main 1565 1554 __________P___ -1 12.5925 140.107 2 2 292
1943119N08143 1943 29 WP MM NOT_NAMED 1943-04-30 21:00:00 NR 12.6366 140.001 main 1554 1546 __________P___ -1 12.6366 140.001 2 2 298
1943119N08143 1943 29 WP MM NOT_NAMED 1943-05-01 00:00:00 NR 12.7000 139.900 main 1546 1537 __________O___ -1 12.7000 139.900 2 3 313
1943119N08143 1943 29 WP MM NOT_NAMED 1943-05-01 03:00:00 NR 12.8075 139.814 main 1537 1527 __________P___ -1 12.8075 139.814 2 3 325
1943119N08143 1943 29 WP MM NOT_NAMED 1943-05-01 06:00:00 NR 12.9350 139.735 main 1527 1527 __________P___ -1 12.9350 139.735 2 3 331
1943119N08143 1943 29 WP MM NOT_NAMED 1943-05-01 09:00:00 NR 13.0700 139.664 main 1530 1519 __________P___ -1 13.0700 139.664 2 3 334
1943119N08143 1943 29 WP MM NOT_NAMED 1943-05-01 12:00:00 NR 13.2000 139.600 main 1521 1521 __________O___ -1 13.2000 139.600 2 2 337
1943119N08143 1943 29 WP MM NOT_NAMED 1943-05-01 15:00:00 NR 13.2949 139.567 main 1522 1513 __________P___ -1 13.2949 139.567 2 2 343
1943119N08143 1943 29 WP MM NOT_NAMED 1943-05-01 18:00:00 NR 13.3849 139.537 main 1513 1513 __________P___ -1 13.3849 139.537 2 2 338
1943119N08143 1943 29 WP MM NOT_NAMED 1943-05-01 21:00:00 NR 13.4824 139.489 main 1515 1504 __________P___ -1 13.4824 139.489 2 3 328
1943119N08143 1943 29 WP MM NOT_NAMED 1943-05-02 00:00:00 NR 13.6000 139.400 main 1506 1489 __________O___ -1 13.6000 139.400 2 4 323
1943119N08143 1943 29 WP MM NOT_NAMED 1943-05-02 03:00:00 NR 13.8104 139.231 main 1489 1472 __________P___ -1 13.8104 139.231 2 6 320
1943119N08143 1943 29 WP MM NOT_NAMED 1943-05-02 06:00:00 NR 14.0327 139.023 main 1472 1456 __________P___ -1 14.0327 139.023 2 6 314
1943119N08143 1943 29 WP MM NOT_NAMED 1943-05-02 09:00:00 NR 14.2136 138.803 main 1456 1437 __________P___ -1 14.2136 138.803 2 5 303
1943119N08143 1943 29 WP MM NOT_NAMED 1943-05-02 12:00:00 NR 14.3000 138.600 main 1437 1424 __________O___ -1 14.3000 138.600 2 3 273
1943119N08143 1943 29 WP MM NOT_NAMED 1943-05-02 15:00:00 NR 14.2296 138.461 main 1424 1400 __________P___ -1 14.2296 138.461 2 3 226
1943119N08143 1943 29 WP MM NOT_NAMED 1943-05-02 18:00:00 NR 14.0623 138.342 main 1400 1385 __________P___ -1 14.0623 138.342 2 5 210
1943119N08143 1943 29 WP MM NOT_NAMED 1943-05-02 21:00:00 NR 13.8389 138.227 main 1383 1368 __________P___ -1 13.8389 138.227 2 5 207
1943119N08143 1943 29 WP MM NOT_NAMED 1943-05-03 00:00:00 NR 13.6000 138.100 main 1368 1353 __________O___ -1 13.6000 138.100 2 5 210
1943119N08143 1943 29 WP MM NOT_NAMED 1943-05-03 03:00:00 NR 13.3827 137.956 main 1353 1328 __________P___ -1 13.3827 137.956 2 5 214
1943119N08143 1943 29 WP MM NOT_NAMED 1943-05-03 06:00:00 NR 13.1624 137.795 main 1328 1303 __________P___ -1 13.1624 137.795 2 5 219
1943119N08143 1943 29 WP MM NOT_NAMED 1943-05-03 09:00:00 NR 12.9608 137.612 main 1303 1278 __________P___ -1 12.9608 137.612 2 5 227
1943119N08143 1943 29 WP MM NOT_NAMED 1943-05-03 12:00:00 NR 12.8000 137.400 main 1278 1255 __________O___ -1 12.8000 137.400 2 5 235
1943119N08143 1943 29 WP MM NOT_NAMED 1943-05-03 15:00:00 NR 12.6781 137.198 main 1255 1232 __________P___ -1 12.6781 137.198 2 5 245
1943119N08143 1943 29 WP MM NOT_NAMED 1943-05-03 18:00:00 NR 12.6019 136.962 main 1232 1200 __________P___ -1 12.6019 136.962 2 5 259
1943119N08143 1943 29 WP MM NOT_NAMED 1943-05-03 21:00:00 NR 12.5748 136.670 main 1200 1157 __________P___ -1 12.5748 136.670 2 6 270
1943119N08143 1943 29 WP MM NOT_NAMED 1943-05-04 00:00:00 NR 12.6000 136.300 main 1157 1114 __________O___ -1 12.6000 136.300 2 8 276
1943119N08143 1943 29 WP MM NOT_NAMED 1943-05-04 03:00:00 NR 12.6585 135.845 main 1105 1053 __________P___ -1 12.6585 135.845 2 10 280
1943119N08143 1943 29 WP MM NOT_NAMED 1943-05-04 06:00:00 NR 12.7675 135.312 main 1053 1002 __________P___ -1 12.7675 135.312 2 11 283
1943119N08143 1943 29 WP MM NOT_NAMED 1943-05-04 09:00:00 NR 12.9177 134.723 main 991 933 __________P___ -1 12.9177 134.723 2 12 286
1943119N08143 1943 29 WP MM NOT_NAMED 1943-05-04 12:00:00 NR 13.1000 134.100 main 933 876 __________O___ -1 13.1000 134.100 2 13 287
1943119N08143 1943 29 WP MM NOT_NAMED 1943-05-04 15:00:00 NR 13.3010 133.427 main 865 805 __________P___ -1 13.3010 133.427 2 14 288
1943119N08143 1943 29 WP MM NOT_NAMED 1943-05-04 18:00:00 NR 13.5285 132.733 main 794 735 __________P___ -1 13.5285 132.733 2 14 289
1943119N08143 1943 29 WP MM NOT_NAMED 1943-05-04 21:00:00 NR 13.7667 132.073 main 737 680 __________P___ -1 13.7667 132.073 2 13 291
1943119N08143 1943 29 WP MM NOT_NAMED 1943-05-05 00:00:00 NR 14.0000 131.500 main 680 642 __________O___ -1 14.0000 131.500 2 11 293
1943119N08143 1943 29 WP MM NOT_NAMED 1943-05-05 03:00:00 NR 14.1820 131.053 main 646 610 __________P___ -1 14.1820 131.053 2 9 295
1943119N08143 1943 29 WP MM NOT_NAMED 1943-05-05 06:00:00 NR 14.3616 130.699 main 614 589 __________P___ -1 14.3616 130.699 2 7 302
1943119N08143 1943 29 WP MM NOT_NAMED 1943-05-05 09:00:00 NR 14.5604 130.421 main 594 580 __________P___ -1 14.5604 130.421 2 7 312
1943119N08143 1943 29 WP MM NOT_NAMED 1943-05-05 12:00:00 NR 14.8000 130.200 main 585 582 __________O___ -1 14.8000 130.200 2 7 327
1943119N08143 1943 29 WP MM NOT_NAMED 1943-05-05 15:00:00 NR 15.1348 130.040 main 584 584 __________P___ -1 15.1348 130.040 2 8 339
1943119N08143 1943 29 WP MM NOT_NAMED 1943-05-05 18:00:00 NR 15.5067 129.922 main 601 601 __________P___ -1 15.5067 129.922 2 8 342
1943119N08143 1943 29 WP MM NOT_NAMED 1943-05-05 21:00:00 NR 15.8753 129.793 main 621 610 __________P___ -1 15.8753 129.793 2 8 336
1943119N08143 1943 29 WP MM NOT_NAMED 1943-05-06 00:00:00 NR 16.2000 129.600 main 615 595 __________O___ -1 16.2000 129.600 2 8 322
1943119N08143 1943 29 WP MM NOT_NAMED 1943-05-06 03:00:00 NR 16.4738 129.305 main 601 578 __________P___ -1 16.4738 129.305 2 8 308
1943119N08143 1943 29 WP MM NOT_NAMED 1943-05-06 06:00:00 NR 16.6920 128.936 main 575 546 __________P___ -1 16.6920 128.936 2 9 295
1943119N08143 1943 29 WP MM NOT_NAMED 1943-05-06 09:00:00 NR 16.8392 128.499 main 546 511 __________P___ -1 16.8392 128.499 2 9 283
1943119N08143 1943 29 WP MM NOT_NAMED 1943-05-06 12:00:00 NR 16.9000 128.000 main 511 456 __________O___ -1 16.9000 128.000 2 11 266
1943119N08143 1943 29 WP MM NOT_NAMED 1943-05-06 15:00:00 NR 16.7534 127.317 main 449 381 __________P___ -1 16.7534 127.317 2 14 255
1943119N08143 1943 29 WP MM NOT_NAMED 1943-05-06 18:00:00 NR 16.5400 126.603 main 373 324 __________P___ -1 16.5400 126.603 2 13 254
1943119N08143 1943 29 WP MM NOT_NAMED 1943-05-06 21:00:00 NR 16.3812 125.987 main 324 302 __________P___ -1 16.3812 125.987 2 10 262
1943119N08143 1943 29 WP MM NOT_NAMED 1943-05-07 00:00:00 NR 16.4000 125.600 main 302 302 __________O___ -1 16.4000 125.600 2 5 316
1943119N08143 1943 29 WP MM NOT_NAMED 1943-05-07 03:00:00 NR 16.7634 125.605 main 330 329 __________P___ -1 16.7634 125.605 2 9 14
1943119N08143 1943 29 WP MM NOT_NAMED 1943-05-07 06:00:00 NR 17.3121 125.843 main 352 352 __________P___ -1 17.3121 125.843 2 13 26
1943119N08143 1943 29 WP MM NOT_NAMED 1943-05-07 09:00:00 NR 17.9547 126.211 main 408 408 __________P___ -1 17.9547 126.211 2 15 29
1943119N08143 1943 29 WP MM NOT_NAMED 1943-05-07 12:00:00 NR 18.6000 126.600 main 454 454 __________O___ -1 18.6000 126.600 2 12 26
1943119N08143 1943 29 WP MM NOT_NAMED 1943-05-07 15:00:00 NR 19.0565 126.781 main 480 480 __________P___ -1 19.0565 126.781 2 10 21
1943119N08143 1943 29 WP MM NOT_NAMED 1943-05-07 18:00:00 NR 19.5083 126.971 main 509 509 __________P___ -1 19.5083 126.971 2 10 24
1943119N08143 1943 29 WP MM NOT_NAMED 1943-05-07 21:00:00 NR 20.0060 127.226 main 544 544 __________P___ -1 20.0060 127.226 2 12 28
1943119N08143 1943 29 WP MM NOT_NAMED 1943-05-08 00:00:00 NR 20.6000 127.600 main 607 607 __________O___ -1 20.6000 127.600 3 16 31
1943119N08143 1943 29 WP MM NOT_NAMED 1943-05-08 03:00:00 NR 21.3898 128.128 main 692 692 __________P___ -1 21.3898 128.128 3 20 34
1943119N08143 1943 29 WP MM NOT_NAMED 1943-05-08 06:00:00 NR 22.2695 128.788 main 745 745 __________P___ -1 22.2695 128.788 3 22 37
1943119N08143 1943 29 WP MM NOT_NAMED 1943-05-08 09:00:00 NR 23.1643 129.554 main 795 782 __________P___ -1 23.1643 129.554 3 23 41
1943119N08143 1943 29 WP MM NOT_NAMED 1943-05-08 12:00:00 NR 24.0000 130.400 main 782 705 __________O___ -1 24.0000 130.400 4 22 45
1943119N08143 1943 29 WP MM NOT_NAMED 1943-05-08 15:00:00 NR 24.7065 131.240 main 705 648 __________P___ -1 24.7065 131.240 4 21 50
1943119N08143 1943 29 WP MM NOT_NAMED 1943-05-08 18:00:00 NR 25.3392 132.153 main 653 615 __________P___ -1 25.3392 132.153 4 21 55
1943119N08143 1943 29 WP MM NOT_NAMED 1943-05-08 21:00:00 NR 25.9024 133.140 main 615 610 __________P___ -1 25.9024 133.140 4 21 60
1943119N08143 1943 29 WP MM NOT_NAMED 1943-05-09 00:00:00 NR 26.4000 134.200 main 616 612 __________O___ -1 26.4000 134.200 4 22 65
1943119N08143 1943 29 WP MM NOT_NAMED 1943-05-09 03:00:00 NR 26.8249 135.365 main 643 640 __________P___ -1 26.8249 135.365 4 23 70
1943119N08143 1943 29 WP MM NOT_NAMED 1943-05-09 06:00:00 NR 27.1898 136.591 main 687 680 __________P___ -1 27.1898 136.591 4 23 72
1943119N08143 1943 29 WP MM NOT_NAMED 1943-05-09 09:00:00 NR 27.5343 137.821 main 685 676 __________P___ -1 27.5343 137.821 4 23 72
1943119N08143 1943 29 WP MM NOT_NAMED 1943-05-09 12:00:00 NR 27.9000 139.000 main 685 683 __________O___ -1 27.9000 139.000 4 22 69
1943119N08143 1943 29 WP MM NOT_NAMED 1943-05-09 15:00:00 NR 28.3203 140.086 main 701 679 __________P___ -1 28.3203 140.086 4 20 64
1943119N08143 1943 29 WP MM NOT_NAMED 1943-05-09 18:00:00 NR 28.7888 141.096 main 682 655 __________P___ -1 28.7888 141.096 4 20 61
1943119N08143 1943 29 WP MM NOT_NAMED 1943-05-09 21:00:00 NR 29.2882 142.057 main 657 634 __________P___ -1 29.2882 142.057 4 19 59
1943119N08143 1943 29 WP MM NOT_NAMED 1943-05-10 00:00:00 NR 29.8000 143.000 main 638 __________O___ -1 29.8000 143.000 7 19 58

Digital Typhoon Data and Search

About IBTrACS Database

This database is a web-friendly format of International Best Track Archive for Climate Stewardship (IBTrACS), a global best track data archive curated by NOAA dating back to 1842.

Updated: 2021-10-21